Time;durP1;ratioP1;P1;durP2;ratioP2;P2;SDS_P1;SDS_P2;PMS_P1;PMS_P2;Temp;Humidity;BMP_temperature;BMP_pressure;BME280_temperature;BME280_humidity;BME280_pressure;Samples;Min_cycle;Max_cycle;Signal;HPM_P1;HPM_P2
2021/10/25 00:00:52;;;;;;;5.30;2.10;;;;;;;7.02;100.00;102220.94;1785197;80;20842;-85
2021/10/25 00:03:18;;;;;;;5.97;2.12;;;;;;;7.02;100.00;102225.48;1784884;80;21086;-84
2021/10/25 00:05:44;;;;;;;3.37;1.65;;;;;;;6.99;100.00;102232.05;1785262;80;22580;-84
2021/10/25 00:08:13;;;;;;;5.47;2.10;;;;;;;7.00;100.00;102228.86;1785168;80;20899;-89
2021/10/25 00:10:38;;;;;;;7.50;1.82;;;;;;;6.95;100.00;102233.48;1784764;80;21058;-86
2021/10/25 00:13:04;;;;;;;5.33;2.08;;;;;;;6.99;100.00;102237.93;1784894;80;20959;-85
2021/10/25 00:15:30;;;;;;;4.50;1.90;;;;;;;6.89;100.00;102219.52;1785304;80;20904;-84
2021/10/25 00:17:56;;;;;;;3.40;1.65;;;;;;;6.98;100.00;102232.27;1785219;80;21599;-83
2021/10/25 00:20:21;;;;;;;4.20;1.70;;;;;;;6.98;100.00;102241.13;1785079;80;20959;-83
2021/10/25 00:22:47;;;;;;;3.62;1.65;;;;;;;6.93;100.00;102227.99;1784954;80;21579;-85
2021/10/25 00:25:13;;;;;;;3.42;2.10;;;;;;;6.92;100.00;102235.73;1785308;80;20947;-84
2021/10/25 00:27:39;;;;;;;4.30;1.70;;;;;;;6.94;100.00;102245.72;1785239;80;21057;-84
2021/10/25 00:30:06;;;;;;;4.25;1.70;;;;;;;6.93;100.00;102244.90;1785058;80;21145;-85
2021/10/25 00:32:33;;;;;;;3.75;1.50;;;;;;;6.92;100.00;102242.43;1784961;80;21034;-83
2021/10/25 00:34:59;;;;;;;3.52;1.50;;;;;;;6.90;100.00;102248.48;1785042;80;20980;-84
2021/10/25 00:37:24;;;;;;;9.28;1.80;;;;;;;6.88;100.00;102245.16;1785361;80;20895;-85
2021/10/25 00:39:50;;;;;;;4.28;1.72;;;;;;;6.87;100.00;102252.38;1785262;80;21070;-90
2021/10/25 00:42:16;;;;;;;5.53;1.50;;;;;;;6.86;100.00;102255.27;1745144;81;21164;-85
2021/10/25 00:44:42;;;;;;;7.00;1.75;;;;;;;6.84;100.00;102263.48;1744768;82;20944;-84
2021/10/25 00:47:08;;;;;;;5.33;1.60;;;;;;;6.83;100.00;102257.81;1744878;82;21047;-84
2021/10/25 00:49:34;;;;;;;4.87;1.82;;;;;;;6.80;100.00;102259.55;1727503;81;20939;-84
2021/10/25 00:52:01;;;;;;;3.67;1.47;;;;;;;6.82;100.00;102264.18;1709712;83;20964;-83
2021/10/25 00:54:27;;;;;;;5.03;1.70;;;;;;;6.80;100.00;102260.37;1708964;83;21987;-83
2021/10/25 00:56:53;;;;;;;3.72;1.42;;;;;;;6.81;100.00;102266.03;1709109;83;20988;-82
2021/10/25 00:59:19;;;;;;;4.17;1.40;;;;;;;6.79;100.00;102274.80;1709784;83;20877;-84
2021/10/25 01:01:46;;;;;;;3.83;1.40;;;;;;;6.77;100.00;102276.84;1709646;83;21107;-84
2021/10/25 01:04:12;;;;;;;8.33;1.75;;;;;;;6.76;100.00;102280.52;1709694;83;21054;-84
2021/10/25 01:06:40;;;;;;;2.90;1.10;;;;;;;6.77;100.00;102280.86;1723904;82;21881;-83
2021/10/25 01:09:07;;;;;;;4.50;1.42;;;;;;;6.77;100.00;102282.19;1745919;82;21187;-87
2021/10/25 01:11:34;;;;;;;3.20;0.98;;;;;;;6.77;100.00;102282.70;1745883;81;21603;-82
2021/10/25 01:14:02;;;;;;;4.65;1.72;;;;;;;6.76;100.00;102288.55;1745473;82;21008;-85
2021/10/25 01:16:28;;;;;;;4.87;1.20;;;;;;;6.74;100.00;102289.28;1745566;82;20980;-85
2021/10/25 01:18:56;;;;;;;5.20;1.30;;;;;;;6.75;100.00;102290.09;1745433;82;21189;-85
2021/10/25 01:21:23;;;;;;;3.95;1.25;;;;;;;6.75;100.00;102299.48;1745664;81;20968;-84
2021/10/25 01:23:51;;;;;;;6.40;1.30;;;;;;;6.73;100.00;102302.84;1745683;81;21021;-83
2021/10/25 01:26:18;;;;;;;4.12;1.30;;;;;;;6.72;100.00;102303.88;1745860;81;21031;-84
2021/10/25 01:28:44;;;;;;;2.60;1.15;;;;;;;6.70;100.00;102302.72;1745793;82;20992;-84
2021/10/25 01:31:10;;;;;;;2.60;1.30;;;;;;;6.70;100.00;102309.42;1718196;82;21080;-85
2021/10/25 01:33:39;;;;;;;5.35;1.30;;;;;;;6.69;100.00;102309.62;1745905;82;20992;-85
2021/10/25 01:36:05;;;;;;;2.70;1.35;;;;;;;6.67;100.00;102307.12;1745605;82;21008;-85
2021/10/25 01:38:31;;;;;;;5.58;1.30;;;;;;;6.65;100.00;102313.69;1718136;82;21418;-85
2021/10/25 01:40:57;;;;;;;2.55;1.20;;;;;;;6.63;100.00;102311.73;1745942;82;20975;-84
2021/10/25 01:43:23;;;;;;;3.50;1.20;;;;;;;6.62;100.00;102309.56;1745855;82;21632;-85
2021/10/25 01:45:49;;;;;;;3.92;1.30;;;;;;;6.63;100.00;102311.22;1745785;82;20951;-82
2021/10/25 01:48:15;;;;;;;3.92;1.30;;;;;;;6.61;100.00;102321.28;1745913;81;21386;-85
2021/10/25 01:50:41;;;;;;;3.42;1.12;;;;;;;6.62;100.00;102320.28;1772751;80;20868;-84
2021/10/25 01:53:08;;;;;;;3.55;1.20;;;;;;;6.60;100.00;102323.14;1779320;80;21008;-85
2021/10/25 01:55:34;;;;;;;2.02;1.02;;;;;;;6.61;100.00;102323.95;1779261;80;21088;-85
2021/10/25 01:58:00;;;;;;;4.60;1.22;;;;;;;6.58;100.00;102333.20;1779070;80;21453;-88
2021/10/25 02:00:26;;;;;;;3.40;1.40;;;;;;;6.57;100.00;102332.89;1779076;80;21090;-87
2021/10/25 02:02:53;;;;;;;2.83;1.37;;;;;;;6.57;100.00;102334.75;1779363;80;20892;-82
2021/10/25 02:05:18;;;;;;;2.80;1.47;;;;;;;6.56;100.00;102337.94;1779225;80;21094;-84
2021/10/25 02:07:45;;;;;;;3.37;1.40;;;;;;;6.54;100.00;102336.47;1779060;80;21140;-85
2021/10/25 02:10:12;;;;;;;2.65;1.17;;;;;;;6.50;100.00;102338.70;1778836;80;21028;-90
2021/10/25 02:12:38;;;;;;;2.83;1.20;;;;;;;6.48;100.00;102343.41;1778921;80;21078;-85
2021/10/25 02:15:05;;;;;;;2.60;1.20;;;;;;;6.46;100.00;102348.11;1748730;80;20980;-85
2021/10/25 02:17:32;;;;;;;2.62;1.07;;;;;;;6.44;100.00;102353.33;1779155;80;21055;-85
2021/10/25 02:19:58;;;;;;;2.85;1.42;;;;;;;6.43;100.00;102354.36;1748917;80;21202;-85
2021/10/25 02:22:24;;;;;;;1.87;1.20;;;;;;;6.40;100.00;102353.41;1774390;80;20924;-84
2021/10/25 02:24:50;;;;;;;2.72;1.20;;;;;;;6.35;100.00;102351.28;1779305;80;21583;-86
2021/10/25 02:27:16;;;;;;;3.98;1.20;;;;;;;6.30;100.00;102357.21;1779289;80;20977;-85
2021/10/25 02:29:42;;;;;;;2.67;1.30;;;;;;;6.26;100.00;102361.27;1779091;80;20996;-84
2021/10/25 02:32:09;;;;;;;2.62;1.20;;;;;;;6.24;100.00;102363.83;1779075;80;21141;-85
2021/10/25 02:34:35;;;;;;;2.60;1.20;;;;;;;6.22;100.00;102364.52;1779344;80;21007;-84
2021/10/25 02:37:03;;;;;;;4.15;1.40;;;;;;;6.20;100.00;102370.05;1779435;80;21519;-85
2021/10/25 02:39:30;;;;;;;2.25;0.90;;;;;;;6.20;100.00;102365.20;1779417;80;21023;-84
2021/10/25 02:41:57;;;;;;;2.15;1.25;;;;;;;6.19;100.00;102381.78;1779328;80;21039;-84
2021/10/25 02:44:25;;;;;;;1.57;0.93;;;;;;;6.18;100.00;102378.79;1779388;80;21150;-86
2021/10/25 02:46:53;;;;;;;2.37;1.22;;;;;;;6.18;100.00;102384.62;1778806;80;20986;-83
2021/10/25 02:49:19;;;;;;;2.67;1.15;;;;;;;6.15;100.00;102384.52;1779428;80;21543;-85
2021/10/25 02:51:45;;;;;;;3.95;1.45;;;;;;;6.11;100.00;102380.53;1785095;80;21477;-85
2021/10/25 02:54:11;;;;;;;2.47;1.20;;;;;;;6.07;100.00;102380.59;1785213;80;21074;-85
2021/10/25 02:56:37;;;;;;;1.92;1.02;;;;;;;6.03;100.00;102380.14;1784984;80;21125;-83
2021/10/25 02:59:08;;;;;;;3.50;1.30;;;;;;;5.95;100.00;102390.11;1756625;80;21681;-86
2021/10/25 03:01:31;;;;;;;3.92;1.20;;;;;;;5.88;100.00;102388.14;1784405;80;21281;-85
2021/10/25 03:03:57;;;;;;;4.53;1.20;;;;;;;5.83;100.00;102391.87;1785568;80;20891;-85
2021/10/25 03:06:23;;;;;;;3.42;1.30;;;;;;;5.78;100.00;102397.44;1785464;80;20900;-84
2021/10/25 03:08:49;;;;;;;3.02;1.40;;;;;;;5.70;100.00;102396.49;1785329;80;21952;-86
2021/10/25 03:11:14;;;;;;;2.10;1.20;;;;;;;5.66;100.00;102398.39;1785254;80;20943;-86
2021/10/25 03:13:40;;;;;;;2.50;1.22;;;;;;;5.61;100.00;102396.77;1785127;80;20907;-85
2021/10/25 03:16:06;;;;;;;3.33;1.40;;;;;;;5.56;100.00;102397.81;1785405;80;20946;-85
2021/10/25 03:18:32;;;;;;;3.17;1.30;;;;;;;5.51;100.00;102398.38;1785164;80;20836;-86
2021/10/25 03:20:58;;;;;;;2.42;1.35;;;;;;;5.46;100.00;102405.59;1785052;80;21121;-84
2021/10/25 03:23:24;;;;;;;5.55;1.42;;;;;;;5.41;100.00;102403.98;1784960;80;21705;-84
2021/10/25 03:25:50;;;;;;;2.92;1.40;;;;;;;5.36;100.00;102405.53;1784687;80;21516;-84
2021/10/25 03:28:16;;;;;;;2.83;1.25;;;;;;;5.30;100.00;102405.75;1785318;80;20991;-84
2021/10/25 03:30:43;;;;;;;2.67;1.30;;;;;;;5.25;100.00;102406.78;1784942;80;21047;-83
2021/10/25 03:33:09;;;;;;;3.67;1.27;;;;;;;5.17;100.00;102409.52;1784986;80;22024;-83
2021/10/25 03:35:37;;;;;;;4.72;1.40;;;;;;;5.09;100.00;102402.41;1785310;80;22095;-85
2021/10/25 03:38:05;;;;;;;2.60;1.32;;;;;;;5.04;100.00;102408.78;1785048;80;21121;-84
2021/10/25 03:40:31;;;;;;;2.52;1.57;;;;;;;4.99;100.00;102422.66;1784555;80;21548;-85
2021/10/25 03:42:58;;;;;;;5.95;1.50;;;;;;;4.94;100.00;102422.39;1785020;80;21090;-83
2021/10/25 03:45:35;;;;;;;5.85;1.30;;;;;;;4.93;100.00;102421.21;1784961;80;21544;-84
2021/10/25 03:48:04;;;;;;;2.17;1.20;;;;;;;4.92;100.00;102428.91;1784518;80;21512;-85
2021/10/25 03:50:30;;;;;;;6.25;1.90;;;;;;;4.92;100.00;102432.41;1784379;80;21015;-84
2021/10/25 03:55:40;;;;;;;6.00;1.95;;;;;;;4.93;100.00;102432.72;1683690;84;21124;-84
2021/10/25 03:58:23;;;;;;;5.78;1.90;;;;;;;4.92;100.00;102436.41;1683052;84;21090;-85
2021/10/25 04:25:39;;;;;;;7.20;2.77;;;;;;;4.89;100.00;102448.79;1620964;88;21137;-84
2021/10/25 04:27:48;;;;;;;7.42;2.00;;;;;;;4.90;100.00;102447.77;1601330;88;20999;-83
2021/10/25 04:30:13;;;;;;;9.55;2.30;;;;;;;4.93;100.00;102450.09;1621101;88;21072;-83
2021/10/25 04:32:39;;;;;;;5.03;1.65;;;;;;;4.96;100.00;102451.58;1641002;85;21077;-84
2021/10/25 04:35:06;;;;;;;3.83;2.00;;;;;;;5.02;100.00;102457.55;1675193;85;21083;-84
2021/10/25 04:37:32;;;;;;;5.58;1.80;;;;;;;5.09;100.00;102461.20;1675304;85;21109;-84
2021/10/25 04:39:58;;;;;;;6.25;2.10;;;;;;;5.18;100.00;102464.14;1674930;85;21133;-84
2021/10/25 04:42:24;;;;;;;4.25;2.12;;;;;;;5.28;100.00;102474.58;1675291;85;21644;-83
2021/10/25 04:44:51;;;;;;;3.33;1.87;;;;;;;5.39;100.00;102481.37;1675305;85;20927;-83
2021/10/25 04:47:17;;;;;;;6.70;2.00;;;;;;;5.44;100.00;102475.81;1674681;85;21534;-84
2021/10/25 04:49:43;;;;;;;4.97;1.77;;;;;;;5.53;100.00;102482.41;1674836;85;21163;-83
2021/10/25 04:52:10;;;;;;;5.50;1.80;;;;;;;5.62;100.00;102484.86;1665374;86;20896;-85
2021/10/25 04:54:39;;;;;;;4.20;1.60;;;;;;;5.76;100.00;102493.08;1665370;86;21041;-84
2021/10/25 04:57:05;;;;;;;8.45;2.12;;;;;;;5.86;100.00;102501.20;1638323;87;21107;-85
2021/10/25 04:59:31;;;;;;;4.67;1.30;;;;;;;5.91;100.00;102503.31;1638269;87;21084;-84
2021/10/25 05:01:57;;;;;;;9.03;1.98;;;;;;;6.01;100.00;102498.58;1638496;87;21971;-83
2021/10/25 05:04:23;;;;;;;4.20;2.10;;;;;;;6.13;100.00;102507.81;1638384;87;22390;-83
2021/10/25 05:06:49;;;;;;;5.65;2.08;;;;;;;6.24;100.00;102513.23;1638459;87;21082;-84
2021/10/25 05:09:16;;;;;;;9.85;2.08;;;;;;;6.32;100.00;102511.81;1638336;87;21093;-83
2021/10/25 05:11:42;;;;;;;8.08;2.00;;;;;;;6.41;100.00;102518.40;1628566;87;21145;-85
2021/10/25 05:14:08;;;;;;;4.97;2.05;;;;;;;6.52;100.00;102523.30;1624214;88;21147;-83
2021/10/25 05:16:34;;;;;;;6.12;1.80;;;;;;;6.60;100.00;102524.03;1699969;82;20932;-83
2021/10/25 05:19:00;;;;;;;7.67;1.92;;;;;;;6.68;100.00;102528.99;1722609;82;20913;-84
2021/10/25 05:21:26;;;;;;;6.45;2.00;;;;;;;6.75;100.00;102536.08;1728982;82;21469;-84
2021/10/25 05:23:52;;;;;;;4.45;2.00;;;;;;;6.74;100.00;102545.66;1725930;82;21466;-86
2021/10/25 05:26:18;;;;;;;5.53;2.00;;;;;;;6.74;100.00;102545.66;1716198;83;21178;-82
2021/10/25 05:28:44;;;;;;;3.90;1.82;;;;;;;6.74;100.00;102548.34;1727653;83;21504;-84
2021/10/25 05:31:11;;;;;;;7.08;2.00;;;;;;;6.78;100.00;102554.46;1727807;83;21047;-84
2021/10/25 05:33:39;;;;;;;5.10;1.87;;;;;;;6.89;100.00;102556.36;1727782;83;21081;-83
2021/10/25 05:36:14;;;;;;;4.12;1.77;;;;;;;7.34;100.00;102554.41;1723906;83;21098;-85
2021/10/25 05:38:40;;;;;;;6.00;2.50;;;;;;;8.08;100.00;102551.38;1641939;87;21150;-83
2021/10/25 05:41:08;;;;;;;6.47;2.33;;;;;;;10.19;100.00;102557.74;1641695;87;21014;-86
2021/10/25 05:43:34;;;;;;;7.92;2.50;;;;;;;12.43;96.47;102553.24;1619867;87;21130;-85
2021/10/25 05:46:00;;;;;;;9.20;2.30;;;;;;;14.11;70.20;102543.98;1641748;87;21586;-86
2021/10/25 05:48:27;;;;;;;4.12;2.00;;;;;;;15.79;63.85;102565.06;1641698;87;21006;-86
2021/10/25 05:50:54;;;;;;;5.50;2.27;;;;;;;17.16;54.99;102564.55;1619304;87;21184;-88
2021/10/25 05:53:20;;;;;;;4.25;2.20;;;;;;;18.27;50.88;102570.73;1644140;86;21035;-86
2021/10/25 05:55:47;;;;;;;3.85;2.20;;;;;;;18.98;46.87;102568.11;1652729;86;21057;-85
2021/10/25 06:03:20;;;;;;;3.27;2.10;;;;;;;20.60;40.78;102585.70;1612369;87;21662;-85
2021/10/25 06:05:46;;;;;;;2.77;1.90;;;;;;;21.22;38.82;102582.14;1612374;87;21523;-87
2021/10/25 06:08:14;;;;;;;2.45;1.55;;;;;;;21.87;37.38;102587.47;1587473;87;20947;-90
2021/10/25 06:10:39;;;;;;;5.53;2.17;;;;;;;22.10;36.62;102588.64;1663131;86;21176;-89
2021/10/25 06:13:07;;;;;;;10.98;3.58;;;;;;;22.44;34.76;102594.63;1677720;84;21169;-86
2021/10/25 06:15:41;;;;;;;5.60;2.27;;;;;;;22.65;34.01;102606.24;1680369;85;21199;-88
2021/10/25 06:18:10;;;;;;;6.05;2.20;;;;;;;23.47;34.58;102601.04;1678705;84;21736;-88
2021/10/25 06:20:39;;;;;;;3.37;2.10;;;;;;;23.75;32.21;102595.95;1675263;84;21589;-88
2021/10/25 06:23:11;;;;;;;4.60;2.02;;;;;;;23.02;31.04;102602.77;1674892;84;21172;-87
2021/10/25 06:25:39;;;;;;;2.58;1.80;;;;;;;22.50;30.92;102598.98;1613454;87;21656;-88
2021/10/25 06:28:06;;;;;;;7.42;2.65;;;;;;;22.80;31.26;102595.06;1634695;87;21189;-86
2021/10/25 06:30:33;;;;;;;3.08;2.20;;;;;;;23.44;30.05;102587.88;1635187;87;21157;-90
2021/10/25 06:33:03;;;;;;;3.12;1.82;;;;;;;22.52;29.25;102598.12;1633401;87;21243;-86
2021/10/25 06:35:28;;;;;;;2.90;2.00;;;;;;;22.22;29.99;102592.41;1634941;87;21541;-88
2021/10/25 06:38:02;;;;;;;3.15;2.12;;;;;;;22.66;29.86;102593.56;1634912;87;21092;-86
2021/10/25 06:40:28;;;;;;;6.90;2.00;;;;;;;23.23;30.06;102601.12;1634983;87;21079;-89
2021/10/25 06:42:56;;;;;;;7.15;2.92;;;;;;;23.12;28.43;102605.40;1638871;87;21132;-88
2021/10/25 06:45:24;;;;;;;3.55;2.50;;;;;;;23.20;29.26;102605.27;1640556;86;21065;-86
2021/10/25 06:47:52;;;;;;;6.60;3.15;;;;;;;23.89;28.63;102599.33;1639930;87;21080;-89
2021/10/25 06:50:22;;;;;;;4.55;2.67;;;;;;;24.24;28.38;102602.01;1635462;87;21194;-88
2021/10/25 06:52:51;;;;;;;6.92;4.05;;;;;;;24.11;26.55;102600.03;1613311;88;21986;-89
2021/10/25 06:55:17;;;;;;;12.40;3.80;;;;;;;24.23;26.96;102604.48;1610101;88;21101;-88
2021/10/25 06:57:44;;;;;;;8.63;2.42;;;;;;;24.06;27.24;102602.33;1634127;86;21025;-89
2021/10/25 07:00:12;;;;;;;4.72;1.95;;;;;;;24.10;27.14;102606.67;1651370;85;21247;-90
2021/10/25 07:02:39;;;;;;;3.98;2.20;;;;;;;24.34;26.39;102610.07;1634454;85;21067;-88
2021/10/25 07:05:06;;;;;;;2.55;1.95;;;;;;;24.36;26.61;102608.41;1652084;85;21608;-87
2021/10/25 07:07:32;;;;;;;2.77;1.80;;;;;;;24.46;25.52;102614.55;1650856;85;21075;-91
2021/10/25 07:09:58;;;;;;;2.67;2.05;;;;;;;24.22;25.57;102613.31;1656506;85;21000;-87
2021/10/25 07:12:27;;;;;;;2.95;1.80;;;;;;;23.70;25.50;102602.91;1659177;85;20890;-85
2021/10/25 07:14:55;;;;;;;2.30;1.90;;;;;;;23.53;25.61;102614.98;1658769;85;21091;-91
2021/10/25 07:59:25;;;;;;;2.47;2.05;;;;;;;25.13;26.17;102612.66;1735127;81;21053;-92
2021/10/25 08:11:03;;;;;;;1.92;1.65;;;;;;;24.35;22.79;102637.88;1691968;84;21157;-90
2021/10/25 08:13:31;;;;;;;3.27;1.82;;;;;;;24.66;21.39;102641.48;1685014;84;21496;-90
2021/10/25 08:15:53;;;;;;;2.83;1.95;;;;;;;24.26;21.74;102630.05;1676008;84;21054;-90
2021/10/25 08:20:51;;;;;;;2.00;1.62;;;;;;;24.55;22.11;102636.72;1664129;84;21606;-89
2021/10/25 08:23:17;;;;;;;2.12;1.60;;;;;;;24.56;21.88;102644.42;1664443;84;21126;-89
2021/10/25 08:25:44;;;;;;;4.67;2.17;;;;;;;22.78;21.92;102642.63;1663966;84;21431;-89
2021/10/25 08:28:10;;;;;;;2.55;1.52;;;;;;;20.47;23.28;102647.91;1663803;84;22357;-90
2021/10/25 08:30:36;;;;;;;2.90;1.22;;;;;;;19.11;24.48;102638.66;1664473;84;21015;-90
2021/10/25 08:33:08;;;;;;;2.22;1.30;;;;;;;18.25;25.34;102627.48;1664250;84;21140;-89
2021/10/25 08:40:42;;;;;;;7.33;2.02;;;;;;;14.81;28.90;102645.72;1609434;89;21586;-89
2021/10/25 08:43:09;;;;;;;1.47;1.10;;;;;;;13.69;30.24;102649.72;1610847;88;21013;-88
2021/10/25 08:45:37;;;;;;;2.40;1.37;;;;;;;12.97;31.93;102655.80;1611021;87;21662;-87
2021/10/25 08:48:05;;;;;;;7.72;1.22;;;;;;;12.71;32.85;102650.95;1645322;84;21953;-88
2021/10/25 08:50:36;;;;;;;4.72;1.35;;;;;;;12.60;33.34;102653.56;1673069;84;21046;-86
2021/10/25 08:53:05;;;;;;;1.32;1.00;;;;;;;12.53;33.91;102664.95;1667110;84;21019;-84
2021/10/25 08:55:32;;;;;;;3.95;1.55;;;;;;;12.16;33.83;102662.97;1658041;86;21436;-88
2021/10/25 08:57:58;;;;;;;3.52;1.30;;;;;;;11.63;34.68;102665.97;1657978;86;21141;-89
2021/10/25 09:00:49;;;;;;;6.72;1.32;;;;;;;11.53;35.16;102670.98;1660312;84;21147;-88
2021/10/25 09:03:16;;;;;;;3.72;1.40;;;;;;;11.71;35.67;102675.18;1652045;86;21554;-85
2021/10/25 09:06:02;;;;;;;1.65;0.80;;;;;;;11.76;35.26;102681.27;1653002;86;21543;-87
2021/10/25 09:08:29;;;;;;;4.15;0.80;;;;;;;11.66;34.97;102676.34;1653092;86;21488;-86
2021/10/25 09:10:57;;;;;;;5.67;1.60;;;;;;;11.73;35.24;102677.65;1653029;86;21489;-87
2021/10/25 09:13:27;;;;;;;3.72;1.77;;;;;;;11.51;35.14;102682.55;1652739;86;21814;-90
2021/10/25 09:18:47;;;;;;;1.32;0.75;;;;;;;11.11;35.98;102677.28;1551115;89;21234;-86
2021/10/25 09:21:14;;;;;;;2.50;1.22;;;;;;;11.15;35.97;102674.48;1549686;92;21097;-89
2021/10/25 09:23:44;;;;;;;1.67;0.82;;;;;;;11.17;36.14;102671.55;1550211;92;21682;-87
2021/10/25 09:26:15;;;;;;;1.12;0.70;;;;;;;11.21;36.42;102668.23;1568591;90;21731;-87
2021/10/25 09:28:53;;;;;;;3.35;1.10;;;;;;;11.19;36.42;102682.45;1569794;89;21130;-87
2021/10/25 09:31:25;;;;;;;4.50;1.15;;;;;;;11.13;36.14;102675.20;1542783;92;21150;-87
2021/10/25 09:33:59;;;;;;;5.05;0.90;;;;;;;10.83;36.60;102677.04;1535963;92;21921;-89
2021/10/25 09:36:35;;;;;;;3.10;1.27;;;;;;;10.51;36.29;102680.59;1529850;92;21705;-85
2021/10/25 09:49:58;;;;;;;6.65;2.25;;;;;;;10.60;37.15;102652.38;1476365;96;21133;-87
2021/10/25 09:52:37;;;;;;;5.30;2.45;;;;;;;10.74;37.98;102657.25;1472144;96;21205;-88
2021/10/25 09:55:11;;;;;;;3.58;1.60;;;;;;;10.97;37.55;102658.97;1427787;98;21133;-87
2021/10/25 10:00:09;;;;;;;7.97;1.60;;;;;;;11.00;36.88;102667.98;1447911;98;21131;-89
2021/10/25 10:02:36;;;;;;;7.87;1.17;;;;;;;10.67;37.26;102666.15;1462098;97;21143;-89
2021/10/25 10:05:05;;;;;;;4.50;1.50;;;;;;;10.55;37.98;102661.61;1464460;97;21286;-87
2021/10/25 10:07:35;;;;;;;6.87;1.77;;;;;;;10.47;37.53;102669.41;1449454;97;21524;-86
2021/10/25 10:10:03;;;;;;;24.40;5.28;;;;;;;10.26;37.98;102662.82;1451737;97;21143;-87
2021/10/25 10:12:36;;;;;;;26.07;7.78;;;;;;;10.17;38.83;102664.88;1448905;97;21183;-87
2021/10/25 10:15:03;;;;;;;10.00;3.10;;;;;;;10.15;38.65;102657.55;1458871;97;21299;-85
2021/10/25 10:17:50;;;;;;;4.28;1.65;;;;;;;10.18;38.96;102661.17;1457835;97;21416;-87
2021/10/25 10:20:32;;;;;;;3.55;1.40;;;;;;;10.39;39.06;102664.22;1447852;97;21203;-91
2021/10/25 10:23:09;;;;;;;4.35;1.40;;;;;;;10.58;38.84;102662.54;1455646;97;21143;-86
2021/10/25 10:25:55;;;;;;;4.35;1.40;;;;;;;10.63;38.45;102668.14;1473754;96;21129;-86
2021/10/25 10:28:42;;;;;;;3.65;1.52;;;;;;;10.70;38.40;102666.25;1505828;94;21599;-87
2021/10/25 10:31:16;;;;;;;4.67;1.45;;;;;;;10.67;38.30;102663.45;1410540;101;21241;-86
2021/10/25 10:33:54;;;;;;;3.65;1.50;;;;;;;10.43;37.70;102662.75;1374760;102;21150;-85
2021/10/25 10:36:34;;;;;;;3.20;1.02;;;;;;;10.16;38.42;102664.58;1354961;103;21211;-88
2021/10/25 10:39:08;;;;;;;2.35;1.30;;;;;;;10.15;38.62;102663.76;1353694;105;21178;-90
2021/10/25 10:41:44;;;;;;;2.08;1.10;;;;;;;10.13;38.39;102672.55;1400666;100;21157;-89
2021/10/25 10:44:14;;;;;;;2.58;1.15;;;;;;;10.04;38.37;102677.00;1421537;100;21637;-86
2021/10/25 10:46:53;;;;;;;2.00;1.20;;;;;;;9.89;38.26;102668.58;1419084;100;21674;-88
2021/10/25 10:49:32;;;;;;;3.47;1.17;;;;;;;9.88;38.33;102662.89;1438948;98;21164;-89
2021/10/25 10:57:44;;;;;;;2.80;0.80;;;;;;;9.95;38.81;102654.81;1422811;99;21126;-88
2021/10/25 11:00:02;;;;;;;2.62;0.80;;;;;;;9.98;38.55;102652.54;1399165;101;21181;-88
2021/10/25 11:02:28;;;;;;;5.78;1.22;;;;;;;10.00;38.62;102656.39;1391043;101;21184;-92
2021/10/25 11:05:04;;;;;;;3.08;1.55;;;;;;;10.07;38.65;102646.96;1422584;99;22096;-90
2021/10/25 11:07:31;;;;;;;2.47;1.30;;;;;;;10.10;38.88;102653.28;1421538;99;21289;-87
2021/10/25 11:10:00;;;;;;;3.58;1.40;;;;;;;10.15;39.10;102653.50;1390030;101;21138;-87
2021/10/25 11:12:27;;;;;;;6.17;2.47;;;;;;;10.07;38.45;102651.00;1408832;99;21273;-88
2021/10/25 11:14:56;;;;;;;8.85;2.30;;;;;;;9.89;38.59;102648.38;1385432;100;21123;-84
2021/10/25 11:17:24;;;;;;;3.62;1.12;;;;;;;9.87;38.89;102651.79;1386666;102;21161;-86
2021/10/25 11:19:56;;;;;;;2.52;1.10;;;;;;;9.86;39.27;102655.53;1384916;102;21150;-86
2021/10/25 11:22:35;;;;;;;4.80;1.12;;;;;;;9.91;38.93;102658.45;1385364;103;21900;-86
2021/10/25 11:25:05;;;;;;;5.03;1.82;;;;;;;9.79;39.37;102664.09;1384128;103;21050;-82
2021/10/25 11:27:34;;;;;;;4.20;1.17;;;;;;;9.67;39.09;102661.16;1391415;100;21149;-86
2021/10/25 11:30:08;;;;;;;4.55;1.40;;;;;;;9.47;39.34;102658.42;1459604;96;21126;-84
2021/10/25 11:32:36;;;;;;;3.27;1.10;;;;;;;9.37;39.59;102657.95;1505465;93;21138;-86
2021/10/25 11:35:11;;;;;;;4.05;1.30;;;;;;;9.30;39.49;102656.58;1538583;91;22030;-85
2021/10/25 11:37:38;;;;;;;2.70;1.20;;;;;;;9.27;39.47;102653.47;1572719;90;21118;-86
2021/10/25 11:40:11;;;;;;;5.47;1.32;;;;;;;9.21;39.62;102649.72;1617341;88;21503;-83
2021/10/25 11:42:42;;;;;;;6.33;1.70;;;;;;;9.20;39.63;102650.73;1616095;87;21514;-85
2021/10/25 11:45:25;;;;;;;5.65;1.55;;;;;;;9.19;39.63;102646.39;1596261;88;21039;-92
2021/10/25 11:47:53;;;;;;;4.77;1.20;;;;;;;9.22;40.13;102650.02;1595608;88;21103;-87
2021/10/25 11:50:25;;;;;;;6.33;2.08;;;;;;;9.20;40.05;102653.42;1625445;88;21829;-86
2021/10/25 11:52:58;;;;;;;8.93;2.98;;;;;;;9.15;40.06;102649.17;1637335;86;21125;-85
2021/10/25 11:55:35;;;;;;;12.95;4.10;;;;;;;9.13;40.16;102652.56;1629535;86;21166;-85
2021/10/25 11:58:09;;;;;;;7.87;2.92;;;;;;;9.17;40.65;102645.75;1660431;83;21554;-83
2021/10/25 12:00:44;;;;;;;7.37;1.65;;;;;;;9.24;40.61;102652.01;1664068;85;21189;-89
2021/10/25 12:03:14;;;;;;;3.60;1.50;;;;;;;9.24;40.93;102661.42;1687517;83;21001;-86
2021/10/25 12:05:41;;;;;;;5.22;1.10;;;;;;;9.28;40.43;102659.16;1697961;83;22263;-84
2021/10/25 12:08:09;;;;;;;8.18;1.98;;;;;;;9.33;40.57;102660.73;1697913;83;21634;-84
2021/10/25 12:10:37;;;;;;;4.30;1.87;;;;;;;9.34;40.43;102655.66;1698154;83;21648;-89
2021/10/25 12:13:07;;;;;;;5.35;1.60;;;;;;;9.30;40.50;102649.86;1697570;83;21195;-86
2021/10/25 12:15:39;;;;;;;5.45;1.90;;;;;;;9.30;40.69;102651.73;1697553;83;21039;-86
2021/10/25 12:18:08;;;;;;;9.95;2.27;;;;;;;9.33;40.75;102650.80;1629438;88;21090;-86
2021/10/25 12:20:38;;;;;;;5.55;1.92;;;;;;;9.33;40.85;102654.84;1629622;88;21071;-85
2021/10/25 12:23:11;;;;;;;3.52;1.57;;;;;;;9.28;40.00;102655.95;1604019;89;21633;-85
2021/10/25 12:25:39;;;;;;;14.50;2.05;;;;;;;9.15;40.19;102659.94;1588623;89;22601;-87
2021/10/25 12:28:17;;;;;;;4.67;1.62;;;;;;;9.03;40.28;102665.05;1587159;89;21124;-85
2021/10/25 12:30:51;;;;;;;2.80;1.62;;;;;;;9.00;40.13;102661.41;1590838;88;21153;-87
2021/10/25 12:33:22;;;;;;;5.35;1.70;;;;;;;8.98;40.43;102663.45;1589274;88;21128;-86
2021/10/25 12:35:50;;;;;;;6.65;1.80;;;;;;;8.98;40.75;102667.48;1588606;88;21100;-86
2021/10/25 12:38:20;;;;;;;4.97;1.60;;;;;;;8.97;40.95;102667.19;1588116;88;21106;-86
2021/10/25 12:41:03;;;;;;;3.08;1.70;;;;;;;8.96;40.67;102661.47;1590087;88;21192;-87
2021/10/25 12:43:45;;;;;;;5.58;1.80;;;;;;;8.96;40.65;102663.33;1591754;88;21129;-87
2021/10/25 12:46:18;;;;;;;5.58;1.80;;;;;;;9.00;40.98;102661.41;1525436;93;22284;-88
2021/10/25 12:48:53;;;;;;;4.58;1.62;;;;;;;9.03;41.22;102665.05;1527748;90;21106;-88
2021/10/25 12:51:20;;;;;;;3.67;1.50;;;;;;;9.03;41.11;102670.91;1533971;93;21202;-87
2021/10/25 12:53:51;;;;;;;5.25;2.47;;;;;;;8.98;41.10;102674.20;1528019;92;21132;-88
2021/10/25 12:56:28;;;;;;;7.30;2.70;;;;;;;8.96;41.30;102669.53;1506067;93;21155;-89
2021/10/25 12:59:13;;;;;;;10.78;3.22;;;;;;;8.93;41.07;102669.93;1484110;93;21076;-88
2021/10/25 13:01:53;;;;;;;7.65;3.12;;;;;;;8.92;41.42;102672.31;1506378;93;38318;-88
2021/10/25 13:04:20;;;;;;;7.60;2.60;;;;;;;8.83;41.24;102666.78;1516851;91;21203;-87
2021/10/25 13:06:49;;;;;;;8.30;2.42;;;;;;;8.79;41.70;102669.00;1541110;91;21086;-87
2021/10/25 13:09:16;;;;;;;4.70;1.60;;;;;;;8.79;41.88;102668.18;1498222;94;22677;-88
2021/10/25 13:11:44;;;;;;;4.50;1.98;;;;;;;8.74;41.41;102671.47;1502029;94;21119;-87
2021/10/25 13:14:10;;;;;;;4.60;2.45;;;;;;;8.70;41.53;102665.33;1505056;94;21648;-88
2021/10/25 13:19:04;;;;;;;9.25;3.20;;;;;;;8.60;41.94;102668.37;1481480;95;22094;-87
2021/10/25 13:21:30;;;;;;;15.45;4.78;;;;;;;8.56;42.61;102664.39;1464017;96;20994;-87
2021/10/25 13:23:56;;;;;;;18.45;6.08;;;;;;;8.51;43.24;102674.40;1484350;96;21020;-87
2021/10/25 13:26:26;;;;;;;14.87;6.28;;;;;;;8.45;43.47;102677.86;1485815;96;20976;-86
2021/10/25 13:28:50;;;;;;;23.22;8.70;;;;;;;8.39;43.66;102679.47;1479649;95;21140;-87